sensor_id;sensor_type;location;lat;lon;timestamp;temperature;humidity
12025;DHT22;6073;53.230;10.444;2023-04-25T00:00:32;7.70;99.90
12025;DHT22;6073;53.230;10.444;2023-04-25T00:02:57;7.70;99.90
12025;DHT22;6073;53.230;10.444;2023-04-25T00:05:25;7.70;99.90
12025;DHT22;6073;53.230;10.444;2023-04-25T00:07:51;7.70;99.90
12025;DHT22;6073;53.230;10.444;2023-04-25T00:10:18;7.80;99.90
12025;DHT22;6073;53.230;10.444;2023-04-25T00:12:44;7.80;99.90
12025;DHT22;6073;53.230;10.444;2023-04-25T00:15:11;7.80;99.90
12025;DHT22;6073;53.230;10.444;2023-04-25T00:17:37;7.80;99.90
12025;DHT22;6073;53.230;10.444;2023-04-25T00:20:04;7.70;99.90
12025;DHT22;6073;53.230;10.444;2023-04-25T00:22:30;7.80;99.90
12025;DHT22;6073;53.230;10.444;2023-04-25T00:24:56;7.80;99.90
12025;DHT22;6073;53.230;10.444;2023-04-25T00:27:25;7.80;99.90
12025;DHT22;6073;53.230;10.444;2023-04-25T00:29:51;7.80;99.90
12025;DHT22;6073;53.230;10.444;2023-04-25T00:32:16;7.80;99.90
12025;DHT22;6073;53.230;10.444;2023-04-25T00:34:42;7.70;99.90
12025;DHT22;6073;53.230;10.444;2023-04-25T00:37:07;7.80;99.90
12025;DHT22;6073;53.230;10.444;2023-04-25T00:39:33;7.70;99.90
12025;DHT22;6073;53.230;10.444;2023-04-25T00:41:59;7.70;99.90
12025;DHT22;6073;53.230;10.444;2023-04-25T00:44:24;7.70;99.90
12025;DHT22;6073;53.230;10.444;2023-04-25T00:46:52;7.70;99.90
12025;DHT22;6073;53.230;10.444;2023-04-25T00:49:19;7.70;99.90
12025;DHT22;6073;53.230;10.444;2023-04-25T00:51:44;7.70;99.90
12025;DHT22;6073;53.230;10.444;2023-04-25T00:54:11;7.70;99.90
12025;DHT22;6073;53.230;10.444;2023-04-25T00:56:37;7.60;99.90
12025;DHT22;6073;53.230;10.444;2023-04-25T00:59:03;7.60;99.90
12025;DHT22;6073;53.230;10.444;2023-04-25T01:01:30;7.60;99.90
12025;DHT22;6073;53.230;10.444;2023-04-25T01:03:58;7.50;99.90
12025;DHT22;6073;53.230;10.444;2023-04-25T01:06:24;7.50;99.90
12025;DHT22;6073;53.230;10.444;2023-04-25T01:08:51;7.50;99.90
12025;DHT22;6073;53.230;10.444;2023-04-25T01:11:17;7.50;99.90
12025;DHT22;6073;53.230;10.444;2023-04-25T01:13:42;7.40;99.90
12025;DHT22;6073;53.230;10.444;2023-04-25T01:16:08;7.50;99.90
12025;DHT22;6073;53.230;10.444;2023-04-25T01:18:34;7.50;99.90
12025;DHT22;6073;53.230;10.444;2023-04-25T01:21:10;7.50;99.90
12025;DHT22;6073;53.230;10.444;2023-04-25T01:23:37;7.40;99.90
12025;DHT22;6073;53.230;10.444;2023-04-25T01:26:03;7.40;99.90
12025;DHT22;6073;53.230;10.444;2023-04-25T01:28:29;7.40;99.90
12025;DHT22;6073;53.230;10.444;2023-04-25T01:30:56;7.40;99.90
12025;DHT22;6073;53.230;10.444;2023-04-25T01:33:22;7.30;99.90
12025;DHT22;6073;53.230;10.444;2023-04-25T01:35:48;7.20;99.90
12025;DHT22;6073;53.230;10.444;2023-04-25T01:38:14;7.20;99.90
12025;DHT22;6073;53.230;10.444;2023-04-25T01:40:40;7.20;99.90
12025;DHT22;6073;53.230;10.444;2023-04-25T01:43:06;7.10;99.90
12025;DHT22;6073;53.230;10.444;2023-04-25T01:45:34;7.10;99.90
12025;DHT22;6073;53.230;10.444;2023-04-25T01:48:01;7.00;99.90
12025;DHT22;6073;53.230;10.444;2023-04-25T01:50:27;7.00;99.90
12025;DHT22;6073;53.230;10.444;2023-04-25T01:52:53;7.00;99.90
12025;DHT22;6073;53.230;10.444;2023-04-25T01:55:19;6.90;99.90
12025;DHT22;6073;53.230;10.444;2023-04-25T01:57:44;7.00;99.90
12025;DHT22;6073;53.230;10.444;2023-04-25T02:00:11;6.90;99.90
12025;DHT22;6073;53.230;10.444;2023-04-25T02:02:36;6.90;99.90
12025;DHT22;6073;53.230;10.444;2023-04-25T02:05:02;6.90;99.90
12025;DHT22;6073;53.230;10.444;2023-04-25T02:07:27;6.90;99.90
12025;DHT22;6073;53.230;10.444;2023-04-25T02:09:53;6.80;99.90
12025;DHT22;6073;53.230;10.444;2023-04-25T02:12:18;6.80;99.90
12025;DHT22;6073;53.230;10.444;2023-04-25T02:14:44;6.80;99.90
12025;DHT22;6073;53.230;10.444;2023-04-25T02:17:10;6.80;99.90
12025;DHT22;6073;53.230;10.444;2023-04-25T02:19:37;6.80;99.90
12025;DHT22;6073;53.230;10.444;2023-04-25T02:22:03;6.80;99.90
12025;DHT22;6073;53.230;10.444;2023-04-25T02:24:29;6.80;99.90
12025;DHT22;6073;53.230;10.444;2023-04-25T02:26:54;6.80;99.90
12025;DHT22;6073;53.230;10.444;2023-04-25T02:29:21;6.80;99.90
12025;DHT22;6073;53.230;10.444;2023-04-25T02:31:47;6.80;99.90
12025;DHT22;6073;53.230;10.444;2023-04-25T02:34:12;6.80;99.90
12025;DHT22;6073;53.230;10.444;2023-04-25T02:36:38;6.70;99.90
12025;DHT22;6073;53.230;10.444;2023-04-25T02:39:03;6.70;99.90
12025;DHT22;6073;53.230;10.444;2023-04-25T02:41:29;6.70;99.90
12025;DHT22;6073;53.230;10.444;2023-04-25T02:43:55;6.70;99.90
12025;DHT22;6073;53.230;10.444;2023-04-25T02:46:20;6.70;99.90
12025;DHT22;6073;53.230;10.444;2023-04-25T02:48:46;6.70;99.90
12025;DHT22;6073;53.230;10.444;2023-04-25T02:51:11;6.70;99.90
12025;DHT22;6073;53.230;10.444;2023-04-25T02:53:37;6.70;99.90
12025;DHT22;6073;53.230;10.444;2023-04-25T02:56:03;6.60;99.90
12025;DHT22;6073;53.230;10.444;2023-04-25T02:58:29;6.60;99.90
12025;DHT22;6073;53.230;10.444;2023-04-25T03:00:54;6.60;99.90
12025;DHT22;6073;53.230;10.444;2023-04-25T03:03:20;6.60;99.90
12025;DHT22;6073;53.230;10.444;2023-04-25T03:05:51;6.60;99.90
12025;DHT22;6073;53.230;10.444;2023-04-25T03:08:18;6.50;99.90
12025;DHT22;6073;53.230;10.444;2023-04-25T03:10:44;6.50;99.90
12025;DHT22;6073;53.230;10.444;2023-04-25T03:13:10;6.40;99.90
12025;DHT22;6073;53.230;10.444;2023-04-25T03:15:36;6.40;99.90
12025;DHT22;6073;53.230;10.444;2023-04-25T03:18:02;6.30;99.90
12025;DHT22;6073;53.230;10.444;2023-04-25T03:20:28;6.30;99.90
12025;DHT22;6073;53.230;10.444;2023-04-25T03:22:53;6.20;99.90
12025;DHT22;6073;53.230;10.444;2023-04-25T03:25:19;6.20;99.90
12025;DHT22;6073;53.230;10.444;2023-04-25T03:27:45;6.20;99.90
12025;DHT22;6073;53.230;10.444;2023-04-25T03:30:11;6.20;99.90
12025;DHT22;6073;53.230;10.444;2023-04-25T03:32:36;6.20;99.90
12025;DHT22;6073;53.230;10.444;2023-04-25T03:35:02;6.20;99.90
12025;DHT22;6073;53.230;10.444;2023-04-25T03:37:28;6.20;99.90
12025;DHT22;6073;53.230;10.444;2023-04-25T03:39:54;6.20;99.90
12025;DHT22;6073;53.230;10.444;2023-04-25T03:42:19;6.20;99.90
12025;DHT22;6073;53.230;10.444;2023-04-25T03:44:48;6.30;99.90
12025;DHT22;6073;53.230;10.444;2023-04-25T03:47:13;6.30;99.90
12025;DHT22;6073;53.230;10.444;2023-04-25T03:49:39;6.20;99.90
12025;DHT22;6073;53.230;10.444;2023-04-25T03:52:05;6.20;99.90
12025;DHT22;6073;53.230;10.444;2023-04-25T03:54:30;6.20;99.90
12025;DHT22;6073;53.230;10.444;2023-04-25T03:56:56;6.20;99.90
12025;DHT22;6073;53.230;10.444;2023-04-25T03:59:21;6.20;99.90
12025;DHT22;6073;53.230;10.444;2023-04-25T04:01:47;6.20;99.90
12025;DHT22;6073;53.230;10.444;2023-04-25T04:04:12;6.20;99.90
12025;DHT22;6073;53.230;10.444;2023-04-25T04:06:39;6.10;99.90
12025;DHT22;6073;53.230;10.444;2023-04-25T04:09:05;6.00;99.90
12025;DHT22;6073;53.230;10.444;2023-04-25T04:11:34;6.00;99.90
12025;DHT22;6073;53.230;10.444;2023-04-25T04:14:02;5.90;99.90
12025;DHT22;6073;53.230;10.444;2023-04-25T04:16:27;5.80;99.90
12025;DHT22;6073;53.230;10.444;2023-04-25T04:18:53;5.80;99.90
12025;DHT22;6073;53.230;10.444;2023-04-25T04:21:18;5.80;99.90
12025;DHT22;6073;53.230;10.444;2023-04-25T04:23:44;5.80;99.90
12025;DHT22;6073;53.230;10.444;2023-04-25T04:26:10;5.70;99.90
12025;DHT22;6073;53.230;10.444;2023-04-25T04:28:36;5.70;99.90
12025;DHT22;6073;53.230;10.444;2023-04-25T04:31:03;5.70;99.90
12025;DHT22;6073;53.230;10.444;2023-04-25T04:33:29;5.70;99.90
12025;DHT22;6073;53.230;10.444;2023-04-25T04:35:56;5.60;99.90
12025;DHT22;6073;53.230;10.444;2023-04-25T04:38:22;5.70;99.90
12025;DHT22;6073;53.230;10.444;2023-04-25T04:40:47;5.70;99.90
12025;DHT22;6073;53.230;10.444;2023-04-25T04:43:13;5.70;99.90
12025;DHT22;6073;53.230;10.444;2023-04-25T04:45:42;5.70;99.90
12025;DHT22;6073;53.230;10.444;2023-04-25T04:48:08;5.80;99.90
12025;DHT22;6073;53.230;10.444;2023-04-25T04:50:34;5.80;99.90
12025;DHT22;6073;53.230;10.444;2023-04-25T04:53:01;5.80;99.90
12025;DHT22;6073;53.230;10.444;2023-04-25T04:55:27;5.90;99.90
12025;DHT22;6073;53.230;10.444;2023-04-25T04:57:52;6.10;99.90
12025;DHT22;6073;53.230;10.444;2023-04-25T05:00:18;6.30;99.90
12025;DHT22;6073;53.230;10.444;2023-04-25T05:02:43;6.50;99.90
12025;DHT22;6073;53.230;10.444;2023-04-25T05:05:09;6.60;99.90
12025;DHT22;6073;53.230;10.444;2023-04-25T05:07:35;6.90;99.90
12025;DHT22;6073;53.230;10.444;2023-04-25T05:10:01;7.10;99.90
12025;DHT22;6073;53.230;10.444;2023-04-25T05:12:26;7.40;99.90
12025;DHT22;6073;53.230;10.444;2023-04-25T05:14:52;7.50;99.90
12025;DHT22;6073;53.230;10.444;2023-04-25T05:17:18;7.70;99.90
12025;DHT22;6073;53.230;10.444;2023-04-25T05:19:43;8.00;99.90
12025;DHT22;6073;53.230;10.444;2023-04-25T05:22:09;8.30;99.90
12025;DHT22;6073;53.230;10.444;2023-04-25T05:24:34;8.60;99.90
12025;DHT22;6073;53.230;10.444;2023-04-25T05:27:00;8.90;99.90
12025;DHT22;6073;53.230;10.444;2023-04-25T05:29:26;9.10;99.90
12025;DHT22;6073;53.230;10.444;2023-04-25T05:31:51;8.90;99.90
12025;DHT22;6073;53.230;10.444;2023-04-25T05:34:17;8.90;99.90
12025;DHT22;6073;53.230;10.444;2023-04-25T05:36:42;8.70;99.90
12025;DHT22;6073;53.230;10.444;2023-04-25T05:39:08;8.40;99.90
12025;DHT22;6073;53.230;10.444;2023-04-25T05:41:34;8.40;99.90
12025;DHT22;6073;53.230;10.444;2023-04-25T05:44:00;8.50;99.90
12025;DHT22;6073;53.230;10.444;2023-04-25T05:46:25;9.00;99.90
12025;DHT22;6073;53.230;10.444;2023-04-25T05:48:51;9.60;99.90
12025;DHT22;6073;53.230;10.444;2023-04-25T05:51:16;10.00;99.90
12025;DHT22;6073;53.230;10.444;2023-04-25T05:53:43;10.10;99.90
12025;DHT22;6073;53.230;10.444;2023-04-25T05:56:09;9.70;99.90
12025;DHT22;6073;53.230;10.444;2023-04-25T05:58:35;9.30;99.90
12025;DHT22;6073;53.230;10.444;2023-04-25T06:01:01;8.80;99.90
12025;DHT22;6073;53.230;10.444;2023-04-25T06:03:27;8.70;99.90
12025;DHT22;6073;53.230;10.444;2023-04-25T06:05:53;8.70;99.90
12025;DHT22;6073;53.230;10.444;2023-04-25T06:08:19;8.70;99.90
12025;DHT22;6073;53.230;10.444;2023-04-25T06:10:44;8.70;99.90
12025;DHT22;6073;53.230;10.444;2023-04-25T06:13:10;8.50;99.90
12025;DHT22;6073;53.230;10.444;2023-04-25T06:15:36;8.30;99.90
12025;DHT22;6073;53.230;10.444;2023-04-25T06:18:01;8.10;99.90
12025;DHT22;6073;53.230;10.444;2023-04-25T06:20:27;7.80;99.90
12025;DHT22;6073;53.230;10.444;2023-04-25T06:22:53;7.70;99.90
12025;DHT22;6073;53.230;10.444;2023-04-25T06:25:19;7.50;99.90
12025;DHT22;6073;53.230;10.444;2023-04-25T06:27:45;7.40;99.90
12025;DHT22;6073;53.230;10.444;2023-04-25T06:30:11;7.30;99.90
12025;DHT22;6073;53.230;10.444;2023-04-25T06:32:40;7.30;99.90
12025;DHT22;6073;53.230;10.444;2023-04-25T06:35:06;7.30;99.90
12025;DHT22;6073;53.230;10.444;2023-04-25T06:37:31;7.30;99.90
12025;DHT22;6073;53.230;10.444;2023-04-25T06:39:57;7.50;99.90
12025;DHT22;6073;53.230;10.444;2023-04-25T06:42:23;7.60;99.90
12025;DHT22;6073;53.230;10.444;2023-04-25T06:44:48;7.70;99.90
12025;DHT22;6073;53.230;10.444;2023-04-25T06:47:14;7.90;99.90
12025;DHT22;6073;53.230;10.444;2023-04-25T06:49:40;7.90;99.90
12025;DHT22;6073;53.230;10.444;2023-04-25T06:52:05;7.80;99.90
12025;DHT22;6073;53.230;10.444;2023-04-25T06:54:31;7.80;99.90
12025;DHT22;6073;53.230;10.444;2023-04-25T06:56:56;7.90;99.90
12025;DHT22;6073;53.230;10.444;2023-04-25T06:59:22;8.00;99.90
12025;DHT22;6073;53.230;10.444;2023-04-25T07:01:48;8.00;99.90
12025;DHT22;6073;53.230;10.444;2023-04-25T07:04:14;8.00;99.90
12025;DHT22;6073;53.230;10.444;2023-04-25T07:06:39;7.90;99.90
12025;DHT22;6073;53.230;10.444;2023-04-25T07:09:26;8.10;99.90
12025;DHT22;6073;53.230;10.444;2023-04-25T07:11:52;8.10;99.90
12025;DHT22;6073;53.230;10.444;2023-04-25T07:14:23;8.10;99.90
12025;DHT22;6073;53.230;10.444;2023-04-25T07:16:49;8.10;99.90
12025;DHT22;6073;53.230;10.444;2023-04-25T07:19:15;8.10;99.90
12025;DHT22;6073;53.230;10.444;2023-04-25T07:21:40;7.80;99.90
12025;DHT22;6073;53.230;10.444;2023-04-25T07:24:06;7.80;99.90
12025;DHT22;6073;53.230;10.444;2023-04-25T07:26:32;7.70;99.90
12025;DHT22;6073;53.230;10.444;2023-04-25T07:28:57;7.60;99.90
12025;DHT22;6073;53.230;10.444;2023-04-25T07:31:23;7.60;99.90
12025;DHT22;6073;53.230;10.444;2023-04-25T07:33:48;7.70;99.90
12025;DHT22;6073;53.230;10.444;2023-04-25T07:36:14;7.80;99.90
12025;DHT22;6073;53.230;10.444;2023-04-25T07:38:41;7.70;99.90
12025;DHT22;6073;53.230;10.444;2023-04-25T07:41:06;7.80;99.90
12025;DHT22;6073;53.230;10.444;2023-04-25T07:43:32;8.00;99.90
12025;DHT22;6073;53.230;10.444;2023-04-25T07:45:58;8.00;99.90
12025;DHT22;6073;53.230;10.444;2023-04-25T07:48:23;8.10;99.90
12025;DHT22;6073;53.230;10.444;2023-04-25T07:50:49;8.50;99.90
12025;DHT22;6073;53.230;10.444;2023-04-25T07:53:15;8.90;99.90
12025;DHT22;6073;53.230;10.444;2023-04-25T07:55:41;9.20;99.90
12025;DHT22;6073;53.230;10.444;2023-04-25T07:58:10;9.20;99.90
12025;DHT22;6073;53.230;10.444;2023-04-25T08:00:36;9.30;99.90
12025;DHT22;6073;53.230;10.444;2023-04-25T08:03:03;9.10;99.90
12025;DHT22;6073;53.230;10.444;2023-04-25T08:05:29;8.90;99.90
12025;DHT22;6073;53.230;10.444;2023-04-25T08:07:54;8.80;99.90
12025;DHT22;6073;53.230;10.444;2023-04-25T08:10:22;8.70;99.90
12025;DHT22;6073;53.230;10.444;2023-04-25T08:12:48;8.70;99.90
12025;DHT22;6073;53.230;10.444;2023-04-25T08:15:14;8.60;99.90
12025;DHT22;6073;53.230;10.444;2023-04-25T08:17:39;8.70;99.90
12025;DHT22;6073;53.230;10.444;2023-04-25T08:20:06;8.70;99.90
12025;DHT22;6073;53.230;10.444;2023-04-25T08:22:32;9.00;99.90
12025;DHT22;6073;53.230;10.444;2023-04-25T08:24:57;9.40;99.90
12025;DHT22;6073;53.230;10.444;2023-04-25T08:27:23;9.30;99.90
12025;DHT22;6073;53.230;10.444;2023-04-25T08:29:49;9.40;99.90
12025;DHT22;6073;53.230;10.444;2023-04-25T08:32:16;9.30;99.90
12025;DHT22;6073;53.230;10.444;2023-04-25T08:34:41;9.20;99.90
12025;DHT22;6073;53.230;10.444;2023-04-25T08:37:09;9.30;99.90
12025;DHT22;6073;53.230;10.444;2023-04-25T08:39:36;9.40;99.90
12025;DHT22;6073;53.230;10.444;2023-04-25T08:42:04;9.40;99.90
12025;DHT22;6073;53.230;10.444;2023-04-25T08:44:33;9.50;99.90
12025;DHT22;6073;53.230;10.444;2023-04-25T08:47:03;9.90;99.90
12025;DHT22;6073;53.230;10.444;2023-04-25T08:49:32;9.90;99.90
12025;DHT22;6073;53.230;10.444;2023-04-25T08:52:00;9.70;99.90
12025;DHT22;6073;53.230;10.444;2023-04-25T08:54:27;9.90;99.90
12025;DHT22;6073;53.230;10.444;2023-04-25T08:56:54;10.10;99.90
12025;DHT22;6073;53.230;10.444;2023-04-25T08:59:22;10.20;99.90
12025;DHT22;6073;53.230;10.444;2023-04-25T09:01:49;10.30;99.90
12025;DHT22;6073;53.230;10.444;2023-04-25T09:04:15;10.10;99.90
12025;DHT22;6073;53.230;10.444;2023-04-25T09:06:41;10.60;99.90
12025;DHT22;6073;53.230;10.444;2023-04-25T09:09:08;11.40;99.90
12025;DHT22;6073;53.230;10.444;2023-04-25T09:11:36;11.30;99.90
12025;DHT22;6073;53.230;10.444;2023-04-25T09:14:15;11.40;99.90
12025;DHT22;6073;53.230;10.444;2023-04-25T09:19:31;10.50;99.90
12025;DHT22;6073;53.230;10.444;2023-04-25T09:21:58;10.10;99.90
12025;DHT22;6073;53.230;10.444;2023-04-25T09:24:41;9.90;99.90
12025;DHT22;6073;53.230;10.444;2023-04-25T09:27:13;9.90;99.90
12025;DHT22;6073;53.230;10.444;2023-04-25T09:29:42;9.80;99.90
12025;DHT22;6073;53.230;10.444;2023-04-25T09:34:42;9.50;99.90
12025;DHT22;6073;53.230;10.444;2023-04-25T09:37:10;9.30;99.90
12025;DHT22;6073;53.230;10.444;2023-04-25T09:39:37;9.30;99.90
12025;DHT22;6073;53.230;10.444;2023-04-25T09:42:04;9.00;99.90
12025;DHT22;6073;53.230;10.444;2023-04-25T09:44:30;8.90;99.90
12025;DHT22;6073;53.230;10.444;2023-04-25T09:46:55;8.70;99.90
12025;DHT22;6073;53.230;10.444;2023-04-25T09:49:21;9.00;99.90
12025;DHT22;6073;53.230;10.444;2023-04-25T09:51:59;9.30;99.90
12025;DHT22;6073;53.230;10.444;2023-04-25T09:54:26;9.20;99.90
12025;DHT22;6073;53.230;10.444;2023-04-25T09:56:53;9.50;99.90
12025;DHT22;6073;53.230;10.444;2023-04-25T09:59:22;9.60;99.90
12025;DHT22;6073;53.230;10.444;2023-04-25T10:01:50;9.60;99.90
12025;DHT22;6073;53.230;10.444;2023-04-25T10:04:24;9.40;99.90
12025;DHT22;6073;53.230;10.444;2023-04-25T10:06:53;9.20;99.90
12025;DHT22;6073;53.230;10.444;2023-04-25T10:09:20;9.00;99.90
12025;DHT22;6073;53.230;10.444;2023-04-25T10:11:47;8.70;99.90
12025;DHT22;6073;53.230;10.444;2023-04-25T10:14:16;8.40;99.90
12025;DHT22;6073;53.230;10.444;2023-04-25T10:16:42;8.10;99.90
12025;DHT22;6073;53.230;10.444;2023-04-25T10:19:09;7.70;99.90
12025;DHT22;6073;53.230;10.444;2023-04-25T10:21:40;7.40;99.90
12025;DHT22;6073;53.230;10.444;2023-04-25T10:24:09;7.30;99.90
12025;DHT22;6073;53.230;10.444;2023-04-25T10:26:35;7.50;99.90
12025;DHT22;6073;53.230;10.444;2023-04-25T10:29:02;7.70;99.90
12025;DHT22;6073;53.230;10.444;2023-04-25T10:31:31;8.20;99.90
12025;DHT22;6073;53.230;10.444;2023-04-25T10:33:58;8.70;99.90
12025;DHT22;6073;53.230;10.444;2023-04-25T10:36:24;9.20;99.90
12025;DHT22;6073;53.230;10.444;2023-04-25T10:38:52;9.60;99.90
12025;DHT22;6073;53.230;10.444;2023-04-25T10:41:20;9.50;99.90
12025;DHT22;6073;53.230;10.444;2023-04-25T10:43:48;9.10;99.90
12025;DHT22;6073;53.230;10.444;2023-04-25T10:46:22;8.60;99.90
12025;DHT22;6073;53.230;10.444;2023-04-25T10:51:19;8.60;99.90
12025;DHT22;6073;53.230;10.444;2023-04-25T10:56:21;9.10;99.90
12025;DHT22;6073;53.230;10.444;2023-04-25T10:58:48;9.80;99.90
12025;DHT22;6073;53.230;10.444;2023-04-25T11:01:14;9.70;99.90
12025;DHT22;6073;53.230;10.444;2023-04-25T11:03:42;10.10;99.90
12025;DHT22;6073;53.230;10.444;2023-04-25T11:06:23;9.90;99.90
12025;DHT22;6073;53.230;10.444;2023-04-25T11:08:51;10.20;99.90
12025;DHT22;6073;53.230;10.444;2023-04-25T11:11:18;10.50;99.90
12025;DHT22;6073;53.230;10.444;2023-04-25T11:13:47;10.90;99.90
12025;DHT22;6073;53.230;10.444;2023-04-25T11:16:13;10.80;99.90
12025;DHT22;6073;53.230;10.444;2023-04-25T11:18:41;10.60;99.90
12025;DHT22;6073;53.230;10.444;2023-04-25T11:21:07;10.20;99.90
12025;DHT22;6073;53.230;10.444;2023-04-25T11:23:33;10.70;99.90
12025;DHT22;6073;53.230;10.444;2023-04-25T11:25:58;11.30;99.90
12025;DHT22;6073;53.230;10.444;2023-04-25T11:28:26;11.50;99.90
12025;DHT22;6073;53.230;10.444;2023-04-25T11:30:52;11.30;99.90
12025;DHT22;6073;53.230;10.444;2023-04-25T11:33:18;11.30;99.90
12025;DHT22;6073;53.230;10.444;2023-04-25T11:35:48;11.20;99.90
12025;DHT22;6073;53.230;10.444;2023-04-25T11:38:13;10.70;99.90
12025;DHT22;6073;53.230;10.444;2023-04-25T11:40:40;10.40;99.90
12025;DHT22;6073;53.230;10.444;2023-04-25T11:43:06;10.00;99.90
12025;DHT22;6073;53.230;10.444;2023-04-25T11:45:32;9.40;99.90
12025;DHT22;6073;53.230;10.444;2023-04-25T11:47:58;8.40;99.90
12025;DHT22;6073;53.230;10.444;2023-04-25T11:50:23;8.20;99.90
12025;DHT22;6073;53.230;10.444;2023-04-25T11:52:49;8.10;99.90
12025;DHT22;6073;53.230;10.444;2023-04-25T11:55:17;8.40;99.90
12025;DHT22;6073;53.230;10.444;2023-04-25T11:57:45;8.40;99.90
12025;DHT22;6073;53.230;10.444;2023-04-25T12:00:20;8.50;99.90
12025;DHT22;6073;53.230;10.444;2023-04-25T12:02:50;8.50;99.90
12025;DHT22;6073;53.230;10.444;2023-04-25T12:05:16;8.70;99.90
12025;DHT22;6073;53.230;10.444;2023-04-25T12:07:42;8.90;99.90
12025;DHT22;6073;53.230;10.444;2023-04-25T12:10:08;9.10;99.90
12025;DHT22;6073;53.230;10.444;2023-04-25T12:12:35;9.30;99.90
12025;DHT22;6073;53.230;10.444;2023-04-25T12:15:22;9.40;99.90
12025;DHT22;6073;53.230;10.444;2023-04-25T12:17:50;9.50;99.90
12025;DHT22;6073;53.230;10.444;2023-04-25T12:20:21;9.50;99.90
12025;DHT22;6073;53.230;10.444;2023-04-25T12:22:49;9.50;99.90
12025;DHT22;6073;53.230;10.444;2023-04-25T12:25:44;9.50;99.90
12025;DHT22;6073;53.230;10.444;2023-04-25T12:28:18;9.70;99.90
12025;DHT22;6073;53.230;10.444;2023-04-25T12:33:37;10.40;99.90
12025;DHT22;6073;53.230;10.444;2023-04-25T12:36:04;10.70;99.90
12025;DHT22;6073;53.230;10.444;2023-04-25T12:38:39;10.80;99.90
12025;DHT22;6073;53.230;10.444;2023-04-25T12:41:05;10.80;99.90
12025;DHT22;6073;53.230;10.444;2023-04-25T12:43:31;11.30;99.90
12025;DHT22;6073;53.230;10.444;2023-04-25T12:45:57;11.40;99.90
12025;DHT22;6073;53.230;10.444;2023-04-25T12:48:23;11.60;99.90
12025;DHT22;6073;53.230;10.444;2023-04-25T12:50:49;11.70;99.90
12025;DHT22;6073;53.230;10.444;2023-04-25T12:53:16;11.40;99.90
12025;DHT22;6073;53.230;10.444;2023-04-25T12:55:42;11.10;99.90
12025;DHT22;6073;53.230;10.444;2023-04-25T12:58:08;10.70;99.90
12025;DHT22;6073;53.230;10.444;2023-04-25T13:00:34;10.20;99.90
12025;DHT22;6073;53.230;10.444;2023-04-25T13:02:59;9.90;99.90
12025;DHT22;6073;53.230;10.444;2023-04-25T13:05:25;9.60;99.90
12025;DHT22;6073;53.230;10.444;2023-04-25T13:07:51;9.40;99.90
12025;DHT22;6073;53.230;10.444;2023-04-25T13:10:17;9.50;99.90
12025;DHT22;6073;53.230;10.444;2023-04-25T13:12:43;9.80;99.90
12025;DHT22;6073;53.230;10.444;2023-04-25T13:15:09;10.10;99.90
12025;DHT22;6073;53.230;10.444;2023-04-25T13:17:39;10.30;99.90
12025;DHT22;6073;53.230;10.444;2023-04-25T13:20:06;10.40;99.90
12025;DHT22;6073;53.230;10.444;2023-04-25T13:22:34;10.30;99.90
12025;DHT22;6073;53.230;10.444;2023-04-25T13:25:02;10.30;99.90
12025;DHT22;6073;53.230;10.444;2023-04-25T13:27:28;10.20;99.90
12025;DHT22;6073;53.230;10.444;2023-04-25T13:29:54;10.10;99.90
12025;DHT22;6073;53.230;10.444;2023-04-25T13:32:20;9.90;99.90
12025;DHT22;6073;53.230;10.444;2023-04-25T13:34:45;9.60;99.90
12025;DHT22;6073;53.230;10.444;2023-04-25T13:37:11;9.60;99.90
12025;DHT22;6073;53.230;10.444;2023-04-25T13:39:36;9.50;99.90
12025;DHT22;6073;53.230;10.444;2023-04-25T13:42:02;9.70;99.90
12025;DHT22;6073;53.230;10.444;2023-04-25T13:44:28;9.90;99.90
12025;DHT22;6073;53.230;10.444;2023-04-25T13:46:54;10.20;99.90
12025;DHT22;6073;53.230;10.444;2023-04-25T13:49:19;10.20;99.90
12025;DHT22;6073;53.230;10.444;2023-04-25T13:51:45;10.00;99.90
12025;DHT22;6073;53.230;10.444;2023-04-25T13:54:11;9.90;99.90
12025;DHT22;6073;53.230;10.444;2023-04-25T13:56:36;9.80;99.90
12025;DHT22;6073;53.230;10.444;2023-04-25T13:59:02;9.80;99.90
12025;DHT22;6073;53.230;10.444;2023-04-25T14:01:28;10.00;99.90
12025;DHT22;6073;53.230;10.444;2023-04-25T14:03:55;10.10;99.90
12025;DHT22;6073;53.230;10.444;2023-04-25T14:06:21;10.10;99.90
12025;DHT22;6073;53.230;10.444;2023-04-25T14:08:49;10.30;99.90
12025;DHT22;6073;53.230;10.444;2023-04-25T14:11:15;10.40;99.90
12025;DHT22;6073;53.230;10.444;2023-04-25T14:13:43;10.80;99.90
12025;DHT22;6073;53.230;10.444;2023-04-25T14:16:09;10.80;99.90
12025;DHT22;6073;53.230;10.444;2023-04-25T14:18:34;10.70;99.90
12025;DHT22;6073;53.230;10.444;2023-04-25T14:21:00;10.50;99.90
12025;DHT22;6073;53.230;10.444;2023-04-25T14:23:26;10.30;99.90
12025;DHT22;6073;53.230;10.444;2023-04-25T14:25:52;10.30;99.90
12025;DHT22;6073;53.230;10.444;2023-04-25T14:28:17;10.10;99.90
12025;DHT22;6073;53.230;10.444;2023-04-25T14:30:43;10.10;99.90
12025;DHT22;6073;53.230;10.444;2023-04-25T14:33:09;9.90;99.90
12025;DHT22;6073;53.230;10.444;2023-04-25T14:35:35;9.80;99.90
12025;DHT22;6073;53.230;10.444;2023-04-25T14:38:00;9.60;99.90
12025;DHT22;6073;53.230;10.444;2023-04-25T14:40:26;9.20;99.90
12025;DHT22;6073;53.230;10.444;2023-04-25T14:42:52;9.00;99.90
12025;DHT22;6073;53.230;10.444;2023-04-25T14:45:17;9.20;99.90
12025;DHT22;6073;53.230;10.444;2023-04-25T14:47:43;9.50;99.90
12025;DHT22;6073;53.230;10.444;2023-04-25T14:50:09;9.80;99.90
12025;DHT22;6073;53.230;10.444;2023-04-25T14:52:35;10.30;99.90
12025;DHT22;6073;53.230;10.444;2023-04-25T14:55:01;10.40;99.90
12025;DHT22;6073;53.230;10.444;2023-04-25T14:57:31;10.50;99.90
12025;DHT22;6073;53.230;10.444;2023-04-25T14:59:57;10.50;99.90
12025;DHT22;6073;53.230;10.444;2023-04-25T15:02:23;10.80;99.90
12025;DHT22;6073;53.230;10.444;2023-04-25T15:04:49;11.10;99.90
12025;DHT22;6073;53.230;10.444;2023-04-25T15:07:15;10.90;99.90
12025;DHT22;6073;53.230;10.444;2023-04-25T15:09:40;10.70;99.90
12025;DHT22;6073;53.230;10.444;2023-04-25T15:12:06;10.70;99.90
12025;DHT22;6073;53.230;10.444;2023-04-25T15:14:33;10.50;99.90
12025;DHT22;6073;53.230;10.444;2023-04-25T15:16:59;10.30;99.90
12025;DHT22;6073;53.230;10.444;2023-04-25T15:19:25;10.00;99.90
12025;DHT22;6073;53.230;10.444;2023-04-25T15:21:51;10.00;99.90
12025;DHT22;6073;53.230;10.444;2023-04-25T15:24:16;9.80;99.90
12025;DHT22;6073;53.230;10.444;2023-04-25T15:26:42;9.60;99.90
12025;DHT22;6073;53.230;10.444;2023-04-25T15:29:08;9.50;99.90
12025;DHT22;6073;53.230;10.444;2023-04-25T15:31:34;9.30;99.90
12025;DHT22;6073;53.230;10.444;2023-04-25T15:33:59;9.30;99.90
12025;DHT22;6073;53.230;10.444;2023-04-25T15:36:25;9.20;99.90
12025;DHT22;6073;53.230;10.444;2023-04-25T15:38:51;9.20;99.90
12025;DHT22;6073;53.230;10.444;2023-04-25T15:41:17;9.10;99.90
12025;DHT22;6073;53.230;10.444;2023-04-25T15:43:42;9.00;99.90
12025;DHT22;6073;53.230;10.444;2023-04-25T15:46:08;9.00;99.90
12025;DHT22;6073;53.230;10.444;2023-04-25T15:48:33;9.10;99.90
12025;DHT22;6073;53.230;10.444;2023-04-25T15:50:59;9.20;99.90